createdAt,value
2022-11-10T00:02:05.985Z,9.32
2022-11-10T00:17:26.275Z,9.35
2022-11-10T00:32:48.319Z,9.93
2022-11-10T00:48:09.066Z,9.18
2022-11-10T01:03:29.750Z,9.50
2022-11-10T01:18:55.195Z,8.55
2022-11-10T01:34:15.486Z,8.45
2022-11-10T01:49:36.110Z,8.70
2022-11-10T05:43:49.129Z,5.65
2022-11-10T05:59:09.817Z,5.03
2022-11-10T06:14:30.283Z,4.45
2022-11-10T06:29:50.846Z,4.65
2022-11-10T06:45:11.371Z,4.10
2022-11-10T07:00:32.528Z,6.57
2022-11-10T07:15:53.665Z,5.53
2022-11-10T07:31:14.873Z,5.68
2022-11-10T07:46:35.438Z,5.53
2022-11-10T08:01:56.567Z,3.75
2022-11-10T08:17:17.056Z,4.10
2022-11-10T08:32:37.957Z,3.13
2022-11-10T08:48:03.291Z,3.35
2022-11-10T09:03:24.806Z,5.00
2022-11-10T09:18:45.968Z,2.78
2022-11-10T09:34:06.807Z,4.63
2022-11-10T09:49:44.442Z,3.65
2022-11-10T10:05:35.191Z,3.20
2022-11-10T10:21:17.228Z,4.03
2022-11-10T10:36:38.197Z,4.82
2022-11-10T10:52:17.905Z,3.55
2022-11-10T11:07:39.189Z,4.53
2022-11-10T11:23:37.927Z,3.63
2022-11-10T11:39:01.399Z,4.60
2022-11-10T11:54:32.525Z,3.60
2022-11-10T12:10:12.141Z,3.92
2022-11-10T12:25:51.103Z,5.85
2022-11-10T12:41:14.934Z,6.10
2022-11-10T12:56:39.189Z,6.20
2022-11-10T13:12:19.588Z,4.40
2022-11-10T13:27:46.052Z,4.65
2022-11-10T13:43:23.230Z,5.57
2022-11-10T13:58:44.389Z,4.47
2022-11-10T14:14:23.763Z,5.50
2022-11-10T14:29:44.894Z,3.58
2022-11-10T14:45:27.879Z,4.82
2022-11-10T15:00:48.880Z,2.92
2022-11-10T15:16:27.661Z,3.50
2022-11-10T15:31:48.573Z,5.75
2022-11-10T15:47:10.613Z,3.03
2022-11-10T16:02:31.587Z,4.05
2022-11-10T16:17:52.220Z,2.92
2022-11-10T16:33:16.903Z,4.03
2022-11-10T16:48:37.900Z,4.53
2022-11-10T17:04:02.819Z,4.25
2022-11-10T17:19:39.161Z,3.83
2022-11-10T17:34:59.941Z,4.03
2022-11-10T17:50:22.179Z,4.82
2022-11-10T18:05:43.242Z,4.43
2022-11-10T18:21:05.039Z,3.88
2022-11-10T18:36:25.801Z,3.70
2022-11-10T18:51:46.408Z,4.18
2022-11-10T19:07:07.531Z,4.07
2022-11-10T19:22:28.158Z,6.28
2022-11-10T19:37:52.576Z,4.78
2022-11-10T19:53:13.459Z,4.45
2022-11-10T20:08:34.412Z,3.55
2022-11-10T20:23:56.193Z,4.22
2022-11-10T20:39:17.844Z,5.50
2022-11-10T20:54:38.958Z,3.63
2022-11-10T21:09:59.964Z,3.92
2022-11-10T21:25:20.734Z,4.07
2022-11-10T21:40:41.536Z,3.67
2022-11-10T21:56:06.703Z,3.85
2022-11-10T22:11:45.768Z,3.85
2022-11-10T22:27:07.866Z,3.67
2022-11-10T22:42:47.306Z,4.18
2022-11-10T22:58:08.106Z,3.65
2022-11-10T23:13:28.861Z,3.78
2022-11-10T23:28:50.108Z,3.33
2022-11-10T23:44:10.675Z,3.00
2022-11-10T23:59:31.369Z,3.25
